sensor_id;sensor_type;location;lat;lon;timestamp;P1;durP1;ratioP1;P2;durP2;ratioP2
8978;SDS011;4524;51.364;5.448;2023-06-14T00:00:22;9.70;;;6.90;;
8978;SDS011;4524;51.364;5.448;2023-06-14T00:02:51;8.10;;;7.00;;
8978;SDS011;4524;51.364;5.448;2023-06-14T00:05:22;8.13;;;7.32;;
8978;SDS011;4524;51.364;5.448;2023-06-14T00:07:50;8.10;;;7.30;;
8978;SDS011;4524;51.364;5.448;2023-06-14T00:10:20;11.43;;;7.90;;
8978;SDS011;4524;51.364;5.448;2023-06-14T00:12:48;7.85;;;7.15;;
8978;SDS011;4524;51.364;5.448;2023-06-14T00:15:16;10.68;;;7.03;;
8978;SDS011;4524;51.364;5.448;2023-06-14T00:17:45;8.50;;;7.25;;
8978;SDS011;4524;51.364;5.448;2023-06-14T00:20:14;7.95;;;7.13;;
8978;SDS011;4524;51.364;5.448;2023-06-14T00:22:42;7.97;;;6.70;;
8978;SDS011;4524;51.364;5.448;2023-06-14T00:25:11;8.27;;;7.28;;
8978;SDS011;4524;51.364;5.448;2023-06-14T00:27:54;7.93;;;7.13;;
8978;SDS011;4524;51.364;5.448;2023-06-14T00:30:23;8.00;;;7.28;;
8978;SDS011;4524;51.364;5.448;2023-06-14T00:32:52;7.57;;;6.88;;
8978;SDS011;4524;51.364;5.448;2023-06-14T00:35:21;8.00;;;7.15;;
8978;SDS011;4524;51.364;5.448;2023-06-14T00:37:49;10.20;;;6.90;;
8978;SDS011;4524;51.364;5.448;2023-06-14T00:40:17;8.02;;;7.20;;
8978;SDS011;4524;51.364;5.448;2023-06-14T00:42:45;9.07;;;6.78;;
8978;SDS011;4524;51.364;5.448;2023-06-14T00:45:13;7.70;;;6.90;;
8978;SDS011;4524;51.364;5.448;2023-06-14T00:47:41;7.63;;;6.95;;
8978;SDS011;4524;51.364;5.448;2023-06-14T00:50:11;7.65;;;6.50;;
8978;SDS011;4524;51.364;5.448;2023-06-14T00:52:40;7.70;;;6.72;;
8978;SDS011;4524;51.364;5.448;2023-06-14T00:55:08;8.35;;;6.63;;
8978;SDS011;4524;51.364;5.448;2023-06-14T00:57:37;7.87;;;6.47;;
8978;SDS011;4524;51.364;5.448;2023-06-14T01:00:06;7.22;;;6.57;;
8978;SDS011;4524;51.364;5.448;2023-06-14T01:02:36;9.02;;;6.63;;
8978;SDS011;4524;51.364;5.448;2023-06-14T01:05:08;10.70;;;6.80;;
8978;SDS011;4524;51.364;5.448;2023-06-14T01:07:55;7.50;;;6.70;;
8978;SDS011;4524;51.364;5.448;2023-06-14T01:10:37;9.50;;;6.68;;
8978;SDS011;4524;51.364;5.448;2023-06-14T01:13:18;7.80;;;6.88;;
8978;SDS011;4524;51.364;5.448;2023-06-14T01:15:48;9.15;;;6.93;;
8978;SDS011;4524;51.364;5.448;2023-06-14T01:18:20;8.38;;;6.57;;
8978;SDS011;4524;51.364;5.448;2023-06-14T01:20:50;7.22;;;6.55;;
8978;SDS011;4524;51.364;5.448;2023-06-14T01:23:25;7.75;;;6.63;;
8978;SDS011;4524;51.364;5.448;2023-06-14T01:25:58;6.80;;;6.10;;
8978;SDS011;4524;51.364;5.448;2023-06-14T01:28:30;7.53;;;6.72;;
8978;SDS011;4524;51.364;5.448;2023-06-14T01:31:01;7.28;;;6.50;;
8978;SDS011;4524;51.364;5.448;2023-06-14T01:33:32;7.47;;;6.70;;
8978;SDS011;4524;51.364;5.448;2023-06-14T01:36:02;9.90;;;6.75;;
8978;SDS011;4524;51.364;5.448;2023-06-14T01:38:36;7.55;;;6.70;;
8978;SDS011;4524;51.364;5.448;2023-06-14T01:41:05;7.45;;;6.75;;
8978;SDS011;4524;51.364;5.448;2023-06-14T01:43:33;7.00;;;6.30;;
8978;SDS011;4524;51.364;5.448;2023-06-14T01:46:03;8.85;;;6.72;;
8978;SDS011;4524;51.364;5.448;2023-06-14T01:48:33;23.30;;;6.60;;
8978;SDS011;4524;51.364;5.448;2023-06-14T01:51:02;6.88;;;6.10;;
8978;SDS011;4524;51.364;5.448;2023-06-14T01:53:30;7.10;;;6.30;;
8978;SDS011;4524;51.364;5.448;2023-06-14T01:56:19;7.20;;;6.50;;
8978;SDS011;4524;51.364;5.448;2023-06-14T01:58:48;8.10;;;6.85;;
8978;SDS011;4524;51.364;5.448;2023-06-14T02:01:16;9.83;;;6.70;;
8978;SDS011;4524;51.364;5.448;2023-06-14T02:03:45;9.95;;;6.70;;
8978;SDS011;4524;51.364;5.448;2023-06-14T02:06:15;7.68;;;6.45;;
8978;SDS011;4524;51.364;5.448;2023-06-14T02:08:43;7.25;;;6.50;;
8978;SDS011;4524;51.364;5.448;2023-06-14T02:11:11;7.55;;;6.53;;
8978;SDS011;4524;51.364;5.448;2023-06-14T02:13:40;7.38;;;6.40;;
8978;SDS011;4524;51.364;5.448;2023-06-14T02:16:08;9.02;;;6.60;;
8978;SDS011;4524;51.364;5.448;2023-06-14T02:18:37;7.00;;;6.30;;
8978;SDS011;4524;51.364;5.448;2023-06-14T02:21:05;7.53;;;6.28;;
8978;SDS011;4524;51.364;5.448;2023-06-14T02:23:33;6.93;;;6.20;;
8978;SDS011;4524;51.364;5.448;2023-06-14T02:26:01;7.45;;;6.35;;
8978;SDS011;4524;51.364;5.448;2023-06-14T02:28:30;7.60;;;6.40;;
8978;SDS011;4524;51.364;5.448;2023-06-14T02:30:59;8.70;;;6.40;;
8978;SDS011;4524;51.364;5.448;2023-06-14T02:33:27;9.82;;;6.13;;
8978;SDS011;4524;51.364;5.448;2023-06-14T02:35:56;7.60;;;6.33;;
8978;SDS011;4524;51.364;5.448;2023-06-14T02:38:25;7.50;;;6.40;;
8978;SDS011;4524;51.364;5.448;2023-06-14T02:40:53;8.85;;;6.18;;
8978;SDS011;4524;51.364;5.448;2023-06-14T02:43:21;7.53;;;6.30;;
8978;SDS011;4524;51.364;5.448;2023-06-14T02:45:49;7.03;;;5.90;;
8978;SDS011;4524;51.364;5.448;2023-06-14T02:48:19;8.13;;;6.05;;
8978;SDS011;4524;51.364;5.448;2023-06-14T02:50:47;7.53;;;6.03;;
8978;SDS011;4524;51.364;5.448;2023-06-14T02:53:15;7.15;;;5.93;;
8978;SDS011;4524;51.364;5.448;2023-06-14T02:55:43;7.53;;;5.78;;
8978;SDS011;4524;51.364;5.448;2023-06-14T02:58:13;7.13;;;6.07;;
8978;SDS011;4524;51.364;5.448;2023-06-14T03:00:42;8.88;;;6.10;;
8978;SDS011;4524;51.364;5.448;2023-06-14T03:03:11;7.00;;;6.30;;
8978;SDS011;4524;51.364;5.448;2023-06-14T03:05:50;8.27;;;6.30;;
8978;SDS011;4524;51.364;5.448;2023-06-14T03:08:23;7.35;;;5.90;;
8978;SDS011;4524;51.364;5.448;2023-06-14T03:10:54;8.88;;;6.07;;
8978;SDS011;4524;51.364;5.448;2023-06-14T03:13:24;7.53;;;6.13;;
8978;SDS011;4524;51.364;5.448;2023-06-14T03:15:53;6.43;;;5.70;;
8978;SDS011;4524;51.364;5.448;2023-06-14T03:18:23;6.65;;;5.68;;
8978;SDS011;4524;51.364;5.448;2023-06-14T03:20:56;7.13;;;5.78;;
8978;SDS011;4524;51.364;5.448;2023-06-14T03:23:26;7.22;;;6.07;;
8978;SDS011;4524;51.364;5.448;2023-06-14T03:25:54;8.37;;;6.10;;
8978;SDS011;4524;51.364;5.448;2023-06-14T03:28:23;6.65;;;5.90;;
8978;SDS011;4524;51.364;5.448;2023-06-14T03:30:53;7.13;;;5.55;;
8978;SDS011;4524;51.364;5.448;2023-06-14T03:33:22;6.47;;;5.78;;
8978;SDS011;4524;51.364;5.448;2023-06-14T03:35:51;6.68;;;5.90;;
8978;SDS011;4524;51.364;5.448;2023-06-14T03:38:22;6.77;;;5.90;;
8978;SDS011;4524;51.364;5.448;2023-06-14T03:40:50;6.70;;;5.80;;
8978;SDS011;4524;51.364;5.448;2023-06-14T03:43:18;6.78;;;5.68;;
8978;SDS011;4524;51.364;5.448;2023-06-14T03:45:47;6.60;;;5.90;;
8978;SDS011;4524;51.364;5.448;2023-06-14T03:48:15;7.07;;;5.60;;
8978;SDS011;4524;51.364;5.448;2023-06-14T03:50:44;6.95;;;5.60;;
8978;SDS011;4524;51.364;5.448;2023-06-14T03:53:12;9.68;;;5.75;;
8978;SDS011;4524;51.364;5.448;2023-06-14T03:55:45;8.35;;;5.80;;
8978;SDS011;4524;51.364;5.448;2023-06-14T03:58:19;7.70;;;5.43;;
8978;SDS011;4524;51.364;5.448;2023-06-14T04:00:47;6.93;;;5.32;;
8978;SDS011;4524;51.364;5.448;2023-06-14T04:03:15;6.13;;;5.50;;
8978;SDS011;4524;51.364;5.448;2023-06-14T04:05:43;10.55;;;5.68;;
8978;SDS011;4524;51.364;5.448;2023-06-14T04:08:17;6.38;;;5.32;;
8978;SDS011;4524;51.364;5.448;2023-06-14T04:10:47;8.07;;;5.55;;
8978;SDS011;4524;51.364;5.448;2023-06-14T04:13:15;6.60;;;5.40;;
8978;SDS011;4524;51.364;5.448;2023-06-14T04:15:44;7.03;;;5.47;;
8978;SDS011;4524;51.364;5.448;2023-06-14T04:18:17;5.97;;;5.38;;
8978;SDS011;4524;51.364;5.448;2023-06-14T04:21:04;6.80;;;5.60;;
8978;SDS011;4524;51.364;5.448;2023-06-14T04:23:32;6.78;;;5.50;;
8978;SDS011;4524;51.364;5.448;2023-06-14T04:26:02;7.67;;;5.57;;
8978;SDS011;4524;51.364;5.448;2023-06-14T04:28:31;7.40;;;5.70;;
8978;SDS011;4524;51.364;5.448;2023-06-14T04:31:03;8.73;;;5.77;;
8978;SDS011;4524;51.364;5.448;2023-06-14T04:33:32;7.03;;;5.47;;
8978;SDS011;4524;51.364;5.448;2023-06-14T04:36:00;6.10;;;5.22;;
8978;SDS011;4524;51.364;5.448;2023-06-14T04:38:30;7.55;;;5.50;;
8978;SDS011;4524;51.364;5.448;2023-06-14T04:41:02;6.10;;;5.50;;
8978;SDS011;4524;51.364;5.448;2023-06-14T04:43:31;6.20;;;5.60;;
8978;SDS011;4524;51.364;5.448;2023-06-14T04:46:05;6.90;;;5.45;;
8978;SDS011;4524;51.364;5.448;2023-06-14T04:48:37;7.97;;;5.72;;
8978;SDS011;4524;51.364;5.448;2023-06-14T04:51:09;8.65;;;5.40;;
8978;SDS011;4524;51.364;5.448;2023-06-14T04:53:37;8.10;;;5.30;;
8978;SDS011;4524;51.364;5.448;2023-06-14T04:56:07;7.93;;;5.53;;
8978;SDS011;4524;51.364;5.448;2023-06-14T04:58:36;6.57;;;5.13;;
8978;SDS011;4524;51.364;5.448;2023-06-14T05:01:04;8.85;;;5.50;;
8978;SDS011;4524;51.364;5.448;2023-06-14T05:03:35;6.28;;;5.53;;
8978;SDS011;4524;51.364;5.448;2023-06-14T05:06:03;5.60;;;5.00;;
8978;SDS011;4524;51.364;5.448;2023-06-14T05:08:33;6.80;;;5.10;;
8978;SDS011;4524;51.364;5.448;2023-06-14T05:11:01;6.15;;;5.40;;
8978;SDS011;4524;51.364;5.448;2023-06-14T05:13:31;8.48;;;5.47;;
8978;SDS011;4524;51.364;5.448;2023-06-14T05:16:01;6.90;;;5.40;;
8978;SDS011;4524;51.364;5.448;2023-06-14T05:18:49;7.72;;;5.35;;
8978;SDS011;4524;51.364;5.448;2023-06-14T05:21:18;6.80;;;5.73;;
8978;SDS011;4524;51.364;5.448;2023-06-14T05:23:46;6.53;;;5.70;;
8978;SDS011;4524;51.364;5.448;2023-06-14T05:26:14;10.07;;;5.60;;
8978;SDS011;4524;51.364;5.448;2023-06-14T05:28:43;6.88;;;5.55;;
8978;SDS011;4524;51.364;5.448;2023-06-14T05:31:11;12.25;;;6.10;;
8978;SDS011;4524;51.364;5.448;2023-06-14T05:33:39;8.00;;;5.75;;
8978;SDS011;4524;51.364;5.448;2023-06-14T05:36:07;7.00;;;5.40;;
8978;SDS011;4524;51.364;5.448;2023-06-14T05:38:35;6.13;;;5.13;;
8978;SDS011;4524;51.364;5.448;2023-06-14T05:41:03;8.38;;;5.60;;
8978;SDS011;4524;51.364;5.448;2023-06-14T05:43:31;7.00;;;5.43;;
8978;SDS011;4524;51.364;5.448;2023-06-14T05:46:00;7.43;;;5.83;;
8978;SDS011;4524;51.364;5.448;2023-06-14T05:48:28;8.38;;;5.95;;
8978;SDS011;4524;51.364;5.448;2023-06-14T05:50:58;6.43;;;5.50;;
8978;SDS011;4524;51.364;5.448;2023-06-14T05:53:27;8.20;;;5.32;;
8978;SDS011;4524;51.364;5.448;2023-06-14T05:55:54;8.27;;;5.60;;
8978;SDS011;4524;51.364;5.448;2023-06-14T05:58:23;7.13;;;5.93;;
8978;SDS011;4524;51.364;5.448;2023-06-14T06:00:51;7.70;;;6.30;;
8978;SDS011;4524;51.364;5.448;2023-06-14T06:03:21;7.22;;;5.90;;
8978;SDS011;4524;51.364;5.448;2023-06-14T06:05:49;8.82;;;5.60;;
8978;SDS011;4524;51.364;5.448;2023-06-14T06:11:07;7.63;;;6.30;;
8978;SDS011;4524;51.364;5.448;2023-06-14T06:13:35;8.77;;;6.10;;
8978;SDS011;4524;51.364;5.448;2023-06-14T06:16:04;7.97;;;6.18;;
8978;SDS011;4524;51.364;5.448;2023-06-14T06:18:34;8.35;;;5.93;;
8978;SDS011;4524;51.364;5.448;2023-06-14T06:21:03;7.15;;;5.88;;
8978;SDS011;4524;51.364;5.448;2023-06-14T06:23:32;7.80;;;5.45;;
8978;SDS011;4524;51.364;5.448;2023-06-14T06:26:00;6.90;;;5.90;;
8978;SDS011;4524;51.364;5.448;2023-06-14T06:28:28;9.70;;;5.88;;
8978;SDS011;4524;51.364;5.448;2023-06-14T06:30:56;8.18;;;5.32;;
8978;SDS011;4524;51.364;5.448;2023-06-14T06:33:24;7.47;;;5.90;;
8978;SDS011;4524;51.364;5.448;2023-06-14T06:35:53;10.35;;;6.07;;
8978;SDS011;4524;51.364;5.448;2023-06-14T06:38:21;7.63;;;5.55;;
8978;SDS011;4524;51.364;5.448;2023-06-14T06:40:49;8.40;;;5.97;;
8978;SDS011;4524;51.364;5.448;2023-06-14T06:43:17;9.52;;;5.75;;
8978;SDS011;4524;51.364;5.448;2023-06-14T06:45:47;8.20;;;5.20;;
8978;SDS011;4524;51.364;5.448;2023-06-14T06:48:15;6.95;;;5.15;;
8978;SDS011;4524;51.364;5.448;2023-06-14T06:50:44;8.68;;;5.50;;
8978;SDS011;4524;51.364;5.448;2023-06-14T06:53:13;7.40;;;5.03;;
8978;SDS011;4524;51.364;5.448;2023-06-14T06:55:49;7.82;;;5.30;;
8978;SDS011;4524;51.364;5.448;2023-06-14T06:58:17;9.70;;;5.30;;
8978;SDS011;4524;51.364;5.448;2023-06-14T07:00:45;9.20;;;5.45;;
8978;SDS011;4524;51.364;5.448;2023-06-14T07:03:13;8.27;;;4.95;;
8978;SDS011;4524;51.364;5.448;2023-06-14T07:05:41;8.05;;;4.88;;
8978;SDS011;4524;51.364;5.448;2023-06-14T07:08:09;7.90;;;4.50;;
8978;SDS011;4524;51.364;5.448;2023-06-14T07:10:38;9.90;;;4.68;;
8978;SDS011;4524;51.364;5.448;2023-06-14T07:13:06;5.87;;;4.50;;
8978;SDS011;4524;51.364;5.448;2023-06-14T07:15:35;8.02;;;4.43;;
8978;SDS011;4524;51.364;5.448;2023-06-14T07:18:03;7.45;;;4.50;;
8978;SDS011;4524;51.364;5.448;2023-06-14T07:20:34;7.90;;;4.57;;
8978;SDS011;4524;51.364;5.448;2023-06-14T07:23:04;8.88;;;4.63;;
8978;SDS011;4524;51.364;5.448;2023-06-14T07:25:32;7.32;;;4.50;;
8978;SDS011;4524;51.364;5.448;2023-06-14T07:28:02;6.88;;;4.53;;
8978;SDS011;4524;51.364;5.448;2023-06-14T07:30:30;7.07;;;4.07;;
8978;SDS011;4524;51.364;5.448;2023-06-14T07:32:58;5.63;;;4.32;;
8978;SDS011;4524;51.364;5.448;2023-06-14T07:35:26;7.38;;;4.32;;
8978;SDS011;4524;51.364;5.448;2023-06-14T07:37:54;7.82;;;4.20;;
8978;SDS011;4524;51.364;5.448;2023-06-14T07:40:22;6.97;;;4.30;;
8978;SDS011;4524;51.364;5.448;2023-06-14T07:42:51;9.23;;;4.57;;
8978;SDS011;4524;51.364;5.448;2023-06-14T07:45:22;7.75;;;4.35;;
8978;SDS011;4524;51.364;5.448;2023-06-14T07:47:50;6.78;;;4.20;;
8978;SDS011;4524;51.364;5.448;2023-06-14T07:50:19;7.35;;;4.30;;
8978;SDS011;4524;51.364;5.448;2023-06-14T07:52:47;7.57;;;4.30;;
8978;SDS011;4524;51.364;5.448;2023-06-14T07:55:15;5.95;;;4.15;;
8978;SDS011;4524;51.364;5.448;2023-06-14T07:57:44;6.28;;;4.38;;
8978;SDS011;4524;51.364;5.448;2023-06-14T08:00:13;6.30;;;4.07;;
8978;SDS011;4524;51.364;5.448;2023-06-14T08:02:43;6.07;;;4.10;;
8978;SDS011;4524;51.364;5.448;2023-06-14T08:05:12;9.10;;;4.30;;
8978;SDS011;4524;51.364;5.448;2023-06-14T08:07:40;6.28;;;4.40;;
8978;SDS011;4524;51.364;5.448;2023-06-14T08:10:09;7.23;;;4.73;;
8978;SDS011;4524;51.364;5.448;2023-06-14T08:12:37;7.72;;;4.28;;
8978;SDS011;4524;51.364;5.448;2023-06-14T08:15:05;7.57;;;4.53;;
8978;SDS011;4524;51.364;5.448;2023-06-14T08:17:40;5.85;;;4.20;;
8978;SDS011;4524;51.364;5.448;2023-06-14T08:20:11;6.78;;;4.22;;
8978;SDS011;4524;51.364;5.448;2023-06-14T08:22:42;6.88;;;4.13;;
8978;SDS011;4524;51.364;5.448;2023-06-14T08:25:12;6.00;;;4.20;;
8978;SDS011;4524;51.364;5.448;2023-06-14T08:27:41;9.07;;;3.60;;
8978;SDS011;4524;51.364;5.448;2023-06-14T08:30:10;8.20;;;3.90;;
8978;SDS011;4524;51.364;5.448;2023-06-14T08:32:39;8.05;;;3.70;;
8978;SDS011;4524;51.364;5.448;2023-06-14T08:35:07;5.75;;;3.78;;
8978;SDS011;4524;51.364;5.448;2023-06-14T08:37:39;5.95;;;3.70;;
8978;SDS011;4524;51.364;5.448;2023-06-14T08:40:12;5.32;;;3.60;;
8978;SDS011;4524;51.364;5.448;2023-06-14T08:42:47;7.00;;;4.10;;
8978;SDS011;4524;51.364;5.448;2023-06-14T08:45:18;6.32;;;3.67;;
8978;SDS011;4524;51.364;5.448;2023-06-14T08:47:51;5.35;;;3.35;;
8978;SDS011;4524;51.364;5.448;2023-06-14T08:50:25;5.55;;;3.55;;
8978;SDS011;4524;51.364;5.448;2023-06-14T08:52:59;6.68;;;3.55;;
8978;SDS011;4524;51.364;5.448;2023-06-14T08:55:30;6.63;;;3.60;;
8978;SDS011;4524;51.364;5.448;2023-06-14T08:58:03;7.57;;;3.35;;
8978;SDS011;4524;51.364;5.448;2023-06-14T09:00:32;7.32;;;3.25;;
8978;SDS011;4524;51.364;5.448;2023-06-14T09:03:01;6.28;;;3.58;;
8978;SDS011;4524;51.364;5.448;2023-06-14T09:05:30;7.63;;;3.38;;
8978;SDS011;4524;51.364;5.448;2023-06-14T09:07:59;4.95;;;3.00;;
8978;SDS011;4524;51.364;5.448;2023-06-14T09:10:32;6.00;;;3.25;;
8978;SDS011;4524;51.364;5.448;2023-06-14T09:13:01;6.43;;;3.40;;
8978;SDS011;4524;51.364;5.448;2023-06-14T09:15:29;8.60;;;3.40;;
8978;SDS011;4524;51.364;5.448;2023-06-14T09:17:57;6.82;;;3.28;;
8978;SDS011;4524;51.364;5.448;2023-06-14T09:20:29;4.47;;;2.90;;
8978;SDS011;4524;51.364;5.448;2023-06-14T09:22:59;6.07;;;3.20;;
8978;SDS011;4524;51.364;5.448;2023-06-14T09:25:28;4.72;;;2.88;;
8978;SDS011;4524;51.364;5.448;2023-06-14T09:28:06;3.70;;;2.73;;
8978;SDS011;4524;51.364;5.448;2023-06-14T09:30:36;4.87;;;2.73;;
8978;SDS011;4524;51.364;5.448;2023-06-14T09:33:04;5.13;;;2.60;;
8978;SDS011;4524;51.364;5.448;2023-06-14T09:35:33;4.15;;;2.70;;
8978;SDS011;4524;51.364;5.448;2023-06-14T09:38:02;5.00;;;2.50;;
8978;SDS011;4524;51.364;5.448;2023-06-14T09:40:33;5.57;;;2.70;;
8978;SDS011;4524;51.364;5.448;2023-06-14T09:43:04;4.57;;;2.60;;
8978;SDS011;4524;51.364;5.448;2023-06-14T09:45:34;2.78;;;2.22;;
8978;SDS011;4524;51.364;5.448;2023-06-14T09:48:03;4.00;;;2.50;;
8978;SDS011;4524;51.364;5.448;2023-06-14T09:50:34;4.43;;;2.20;;
8978;SDS011;4524;51.364;5.448;2023-06-14T09:53:05;4.22;;;2.13;;
8978;SDS011;4524;51.364;5.448;2023-06-14T09:55:34;4.30;;;2.10;;
8978;SDS011;4524;51.364;5.448;2023-06-14T09:58:05;2.37;;;2.03;;
8978;SDS011;4524;51.364;5.448;2023-06-14T10:00:35;2.00;;;1.80;;
8978;SDS011;4524;51.364;5.448;2023-06-14T10:03:06;4.07;;;1.90;;
8978;SDS011;4524;51.364;5.448;2023-06-14T10:05:39;3.25;;;1.80;;
8978;SDS011;4524;51.364;5.448;2023-06-14T10:08:13;4.15;;;1.90;;
8978;SDS011;4524;51.364;5.448;2023-06-14T10:10:46;2.50;;;1.73;;
8978;SDS011;4524;51.364;5.448;2023-06-14T10:13:14;3.15;;;1.65;;
8978;SDS011;4524;51.364;5.448;2023-06-14T10:16:05;7.10;;;1.70;;
8978;SDS011;4524;51.364;5.448;2023-06-14T10:18:41;3.85;;;1.80;;
8978;SDS011;4524;51.364;5.448;2023-06-14T10:21:14;3.60;;;1.80;;
8978;SDS011;4524;51.364;5.448;2023-06-14T10:23:49;1.90;;;1.70;;
8978;SDS011;4524;51.364;5.448;2023-06-14T10:26:19;3.20;;;1.80;;
8978;SDS011;4524;51.364;5.448;2023-06-14T10:28:55;3.17;;;1.77;;
8978;SDS011;4524;51.364;5.448;2023-06-14T10:31:41;2.63;;;1.83;;
8978;SDS011;4524;51.364;5.448;2023-06-14T10:34:10;2.97;;;1.90;;
8978;SDS011;4524;51.364;5.448;2023-06-14T10:36:40;3.95;;;2.00;;
8978;SDS011;4524;51.364;5.448;2023-06-14T10:39:12;2.40;;;1.83;;
8978;SDS011;4524;51.364;5.448;2023-06-14T10:41:50;2.08;;;1.88;;
8978;SDS011;4524;51.364;5.448;2023-06-14T10:44:38;2.80;;;2.00;;
8978;SDS011;4524;51.364;5.448;2023-06-14T10:47:31;2.67;;;1.87;;
8978;SDS011;4524;51.364;5.448;2023-06-14T10:50:05;2.10;;;1.90;;
8978;SDS011;4524;51.364;5.448;2023-06-14T10:52:35;3.90;;;2.00;;
8978;SDS011;4524;51.364;5.448;2023-06-14T10:58:02;2.05;;;1.83;;
8978;SDS011;4524;51.364;5.448;2023-06-14T11:00:30;2.25;;;1.98;;
8978;SDS011;4524;51.364;5.448;2023-06-14T11:03:24;2.90;;;1.90;;
8978;SDS011;4524;51.364;5.448;2023-06-14T11:06:12;3.85;;;2.10;;
8978;SDS011;4524;51.364;5.448;2023-06-14T11:08:51;3.28;;;1.90;;
8978;SDS011;4524;51.364;5.448;2023-06-14T11:12:07;4.85;;;2.20;;
8978;SDS011;4524;51.364;5.448;2023-06-14T11:14:38;4.07;;;2.00;;
8978;SDS011;4524;51.364;5.448;2023-06-14T11:17:06;2.22;;;1.83;;
8978;SDS011;4524;51.364;5.448;2023-06-14T11:19:34;2.40;;;1.80;;
8978;SDS011;4524;51.364;5.448;2023-06-14T11:22:02;5.30;;;2.10;;
8978;SDS011;4524;51.364;5.448;2023-06-14T11:24:32;4.57;;;2.05;;
8978;SDS011;4524;51.364;5.448;2023-06-14T11:27:00;3.42;;;2.08;;
8978;SDS011;4524;51.364;5.448;2023-06-14T11:29:30;3.30;;;2.08;;
8978;SDS011;4524;51.364;5.448;2023-06-14T11:31:58;4.80;;;2.05;;
8978;SDS011;4524;51.364;5.448;2023-06-14T11:34:26;3.47;;;2.20;;
8978;SDS011;4524;51.364;5.448;2023-06-14T11:36:54;2.83;;;1.92;;
8978;SDS011;4524;51.364;5.448;2023-06-14T11:39:24;2.10;;;1.90;;
8978;SDS011;4524;51.364;5.448;2023-06-14T11:41:53;5.00;;;2.00;;
8978;SDS011;4524;51.364;5.448;2023-06-14T11:44:22;1.90;;;1.73;;
8978;SDS011;4524;51.364;5.448;2023-06-14T11:46:52;5.22;;;2.20;;
8978;SDS011;4524;51.364;5.448;2023-06-14T11:49:21;4.35;;;1.92;;
8978;SDS011;4524;51.364;5.448;2023-06-14T11:51:49;4.25;;;2.08;;
8978;SDS011;4524;51.364;5.448;2023-06-14T11:54:17;2.42;;;1.90;;
8978;SDS011;4524;51.364;5.448;2023-06-14T11:56:45;3.78;;;2.00;;
8978;SDS011;4524;51.364;5.448;2023-06-14T11:59:13;3.30;;;2.08;;
8978;SDS011;4524;51.364;5.448;2023-06-14T12:01:42;3.28;;;2.15;;
8978;SDS011;4524;51.364;5.448;2023-06-14T12:04:13;3.80;;;2.17;;
8978;SDS011;4524;51.364;5.448;2023-06-14T12:06:41;2.10;;;1.90;;
8978;SDS011;4524;51.364;5.448;2023-06-14T12:09:09;3.80;;;2.10;;
8978;SDS011;4524;51.364;5.448;2023-06-14T12:11:43;2.90;;;2.00;;
8978;SDS011;4524;51.364;5.448;2023-06-14T12:14:11;3.45;;;2.03;;
8978;SDS011;4524;51.364;5.448;2023-06-14T12:16:39;3.17;;;2.00;;
8978;SDS011;4524;51.364;5.448;2023-06-14T12:19:29;3.42;;;1.95;;
8978;SDS011;4524;51.364;5.448;2023-06-14T12:21:58;3.85;;;2.13;;
8978;SDS011;4524;51.364;5.448;2023-06-14T12:24:31;4.97;;;2.00;;
8978;SDS011;4524;51.364;5.448;2023-06-14T12:26:59;4.55;;;1.80;;
8978;SDS011;4524;51.364;5.448;2023-06-14T12:29:29;2.95;;;2.00;;
8978;SDS011;4524;51.364;5.448;2023-06-14T12:31:57;3.65;;;2.00;;
8978;SDS011;4524;51.364;5.448;2023-06-14T12:34:26;2.53;;;1.80;;
8978;SDS011;4524;51.364;5.448;2023-06-14T12:36:55;3.17;;;1.90;;
8978;SDS011;4524;51.364;5.448;2023-06-14T12:39:24;4.93;;;2.10;;
8978;SDS011;4524;51.364;5.448;2023-06-14T12:41:52;3.30;;;2.00;;
8978;SDS011;4524;51.364;5.448;2023-06-14T12:44:20;3.30;;;2.10;;
8978;SDS011;4524;51.364;5.448;2023-06-14T12:46:48;3.55;;;2.10;;
8978;SDS011;4524;51.364;5.448;2023-06-14T12:49:17;3.28;;;1.90;;
8978;SDS011;4524;51.364;5.448;2023-06-14T12:51:46;4.95;;;1.95;;
8978;SDS011;4524;51.364;5.448;2023-06-14T12:54:15;3.20;;;1.80;;
8978;SDS011;4524;51.364;5.448;2023-06-14T12:57:01;3.00;;;1.80;;
8978;SDS011;4524;51.364;5.448;2023-06-14T12:59:29;4.13;;;1.92;;
8978;SDS011;4524;51.364;5.448;2023-06-14T13:02:09;4.05;;;1.95;;
8978;SDS011;4524;51.364;5.448;2023-06-14T13:04:39;2.33;;;1.90;;
8978;SDS011;4524;51.364;5.448;2023-06-14T13:07:25;3.03;;;2.00;;
8978;SDS011;4524;51.364;5.448;2023-06-14T13:09:54;4.07;;;2.00;;
8978;SDS011;4524;51.364;5.448;2023-06-14T13:12:22;4.72;;;2.00;;
8978;SDS011;4524;51.364;5.448;2023-06-14T13:14:51;4.00;;;1.90;;
8978;SDS011;4524;51.364;5.448;2023-06-14T13:17:19;3.17;;;1.70;;
8978;SDS011;4524;51.364;5.448;2023-06-14T13:19:47;3.50;;;1.70;;
8978;SDS011;4524;51.364;5.448;2023-06-14T13:22:15;3.08;;;1.70;;
8978;SDS011;4524;51.364;5.448;2023-06-14T13:24:43;4.20;;;1.85;;
8978;SDS011;4524;51.364;5.448;2023-06-14T13:27:13;3.90;;;1.90;;
8978;SDS011;4524;51.364;5.448;2023-06-14T13:29:42;2.50;;;1.98;;
8978;SDS011;4524;51.364;5.448;2023-06-14T13:32:10;3.70;;;2.00;;
8978;SDS011;4524;51.364;5.448;2023-06-14T13:34:38;3.80;;;2.00;;
8978;SDS011;4524;51.364;5.448;2023-06-14T13:37:06;3.38;;;1.83;;
8978;SDS011;4524;51.364;5.448;2023-06-14T13:39:34;2.28;;;1.60;;
8978;SDS011;4524;51.364;5.448;2023-06-14T13:42:03;4.93;;;1.80;;
8978;SDS011;4524;51.364;5.448;2023-06-14T13:44:33;4.28;;;1.98;;
8978;SDS011;4524;51.364;5.448;2023-06-14T13:47:01;3.33;;;1.63;;
8978;SDS011;4524;51.364;5.448;2023-06-14T13:49:29;2.33;;;1.70;;
8978;SDS011;4524;51.364;5.448;2023-06-14T13:52:00;5.55;;;1.65;;
8978;SDS011;4524;51.364;5.448;2023-06-14T13:54:29;2.65;;;1.67;;
8978;SDS011;4524;51.364;5.448;2023-06-14T13:56:57;5.22;;;1.55;;
8978;SDS011;4524;51.364;5.448;2023-06-14T13:59:24;3.28;;;1.50;;
8978;SDS011;4524;51.364;5.448;2023-06-14T14:01:54;3.25;;;1.52;;
8978;SDS011;4524;51.364;5.448;2023-06-14T14:04:23;2.10;;;1.52;;
8978;SDS011;4524;51.364;5.448;2023-06-14T14:06:51;4.20;;;1.55;;
8978;SDS011;4524;51.364;5.448;2023-06-14T14:09:19;2.42;;;1.58;;
8978;SDS011;4524;51.364;5.448;2023-06-14T14:12:06;5.57;;;1.38;;
8978;SDS011;4524;51.364;5.448;2023-06-14T14:14:34;4.07;;;1.40;;
8978;SDS011;4524;51.364;5.448;2023-06-14T14:17:04;2.80;;;1.40;;
8978;SDS011;4524;51.364;5.448;2023-06-14T14:19:33;4.95;;;1.40;;
8978;SDS011;4524;51.364;5.448;2023-06-14T14:22:01;2.25;;;1.35;;
8978;SDS011;4524;51.364;5.448;2023-06-14T14:24:29;2.50;;;1.40;;
8978;SDS011;4524;51.364;5.448;2023-06-14T14:26:57;2.83;;;1.40;;
8978;SDS011;4524;51.364;5.448;2023-06-14T14:29:26;4.25;;;1.40;;
8978;SDS011;4524;51.364;5.448;2023-06-14T14:31:55;1.77;;;1.30;;
8978;SDS011;4524;51.364;5.448;2023-06-14T14:34:25;2.97;;;1.40;;
8978;SDS011;4524;51.364;5.448;2023-06-14T14:36:53;2.33;;;1.20;;
8978;SDS011;4524;51.364;5.448;2023-06-14T14:39:21;2.85;;;1.40;;
8978;SDS011;4524;51.364;5.448;2023-06-14T14:41:49;4.70;;;1.40;;
8978;SDS011;4524;51.364;5.448;2023-06-14T14:44:17;1.60;;;1.30;;
8978;SDS011;4524;51.364;5.448;2023-06-14T14:46:45;2.78;;;1.40;;
8978;SDS011;4524;51.364;5.448;2023-06-14T14:49:13;2.17;;;1.30;;
8978;SDS011;4524;51.364;5.448;2023-06-14T14:51:43;3.40;;;1.30;;
8978;SDS011;4524;51.364;5.448;2023-06-14T14:54:11;5.78;;;1.60;;
8978;SDS011;4524;51.364;5.448;2023-06-14T14:56:38;3.95;;;1.50;;
8978;SDS011;4524;51.364;5.448;2023-06-14T14:59:07;2.30;;;1.30;;
8978;SDS011;4524;51.364;5.448;2023-06-14T15:01:34;4.10;;;1.35;;
8978;SDS011;4524;51.364;5.448;2023-06-14T15:04:03;3.03;;;1.20;;
8978;SDS011;4524;51.364;5.448;2023-06-14T15:06:31;2.10;;;1.40;;
8978;SDS011;4524;51.364;5.448;2023-06-14T15:09:06;1.87;;;1.50;;
8978;SDS011;4524;51.364;5.448;2023-06-14T15:11:34;2.80;;;1.50;;
8978;SDS011;4524;51.364;5.448;2023-06-14T15:14:02;2.08;;;1.40;;
8978;SDS011;4524;51.364;5.448;2023-06-14T15:16:30;4.03;;;1.50;;
8978;SDS011;4524;51.364;5.448;2023-06-14T15:18:58;5.15;;;1.50;;
8978;SDS011;4524;51.364;5.448;2023-06-14T15:21:26;4.30;;;1.40;;
8978;SDS011;4524;51.364;5.448;2023-06-14T15:23:54;2.55;;;1.42;;
8978;SDS011;4524;51.364;5.448;2023-06-14T15:26:23;3.00;;;1.40;;
8978;SDS011;4524;51.364;5.448;2023-06-14T15:28:51;3.13;;;1.43;;
8978;SDS011;4524;51.364;5.448;2023-06-14T15:31:39;2.67;;;1.40;;
8978;SDS011;4524;51.364;5.448;2023-06-14T15:34:07;3.60;;;1.40;;
8978;SDS011;4524;51.364;5.448;2023-06-14T15:36:35;5.57;;;1.48;;
8978;SDS011;4524;51.364;5.448;2023-06-14T15:39:03;2.35;;;1.40;;